Brookside, Iowa
Current Conditions -  °F | °C
As of 9:54 PM on Saturday 24 Jan 2015 (Local Time) from KALO Reporting Station
Overcast Overcast  
Wind Chill: 33°   Ceiling: 11000
Heat Index: 33°   Visibility: 10mi
Dew Point: 32°   Wind: 3mph
Humidity: 96%   Direction: 90°E
Pressure: 29.58"   Gusts: NA
Location:  42.5035°N, 92.4936°W
Report Text: KALO 250354Z AUTO 09003KT 10SM OVC110 01/00 A2958 RMK AO2 SLP023 T00060000
Loading
Personal Weather Stations






























Interactive Weather Map New forecast layout! Learn more

10-Day Weather Forecast

Advertisements
Track Severe Weather on mobile